createdAt,value
2019-01-15T00:01:57.096Z,94236.66
2019-01-15T00:04:26.431Z,94241.78
2019-01-15T00:06:55.729Z,94240.67
2019-01-15T00:09:26.173Z,94243.98
2019-01-15T00:11:55.553Z,94258.36
2019-01-15T00:14:24.910Z,94257.34
2019-01-15T00:16:54.271Z,94259.84
2019-01-15T00:19:23.602Z,94254.24
2019-01-15T00:21:52.977Z,94255.88
2019-01-15T00:24:22.307Z,94261.00
2019-01-15T00:26:51.668Z,94264.23
2019-01-15T00:29:21.032Z,94280.66
2019-01-15T00:31:50.432Z,94274.48
2019-01-15T00:34:19.749Z,94287.50
2019-01-15T00:36:49.063Z,94289.36
2019-01-15T00:39:18.423Z,94295.84
2019-01-15T00:41:47.894Z,94299.67
2019-01-15T00:44:17.213Z,94301.00
2019-01-15T00:46:46.546Z,94301.04
2019-01-15T00:49:15.908Z,94298.47
2019-01-15T00:51:45.291Z,94304.90
2019-01-15T00:54:14.655Z,94305.97
2019-01-15T00:56:44.022Z,94304.19
2019-01-15T00:59:13.393Z,94302.03
2019-01-15T01:01:42.753Z,94296.65
2019-01-15T01:04:12.150Z,94297.48
2019-01-15T01:06:41.509Z,94301.00
2019-01-15T01:09:11.640Z,94296.58
2019-01-15T01:11:40.958Z,94300.05
2019-01-15T01:14:10.305Z,94305.84
2019-01-15T01:16:39.627Z,94289.77
2019-01-15T01:19:08.957Z,94286.35
2019-01-15T01:21:38.330Z,94293.50
2019-01-15T01:24:07.676Z,94299.63
2019-01-15T01:26:37.036Z,94299.91
2019-01-15T01:29:06.380Z,94298.91
2019-01-15T01:31:35.702Z,94303.68
2019-01-15T01:34:05.089Z,94295.89
2019-01-15T01:36:34.419Z,94295.89
2019-01-15T01:39:05.730Z,94304.38
2019-01-15T01:41:35.079Z,94301.00
2019-01-15T01:44:04.631Z,94294.61
2019-01-15T01:46:33.967Z,94290.44
2019-01-15T01:49:03.337Z,94302.05
2019-01-15T01:51:32.698Z,94308.15
2019-01-15T01:54:02.027Z,94303.45
2019-01-15T01:56:31.367Z,94312.53
2019-01-15T01:59:00.711Z,94310.61
2019-01-15T02:01:30.062Z,94306.63
2019-01-15T02:03:59.410Z,94318.52
2019-01-15T02:06:28.759Z,94316.47
2019-01-15T02:08:58.084Z,94322.36
2019-01-15T02:11:27.436Z,94343.88
2019-01-15T02:13:56.854Z,94330.70
2019-01-15T02:16:26.157Z,94346.33
2019-01-15T02:18:55.452Z,94347.72
2019-01-15T02:21:24.805Z,94349.30
2019-01-15T02:23:54.235Z,94346.66
2019-01-15T02:26:23.565Z,94357.84
2019-01-15T02:28:52.928Z,94365.31
2019-01-15T02:31:22.311Z,94368.49
2019-01-15T02:33:51.636Z,94376.20
2019-01-15T02:36:21.007Z,94374.64
2019-01-15T02:38:50.452Z,94376.29
2019-01-15T02:41:19.805Z,94382.20
2019-01-15T02:43:49.107Z,94384.05
2019-01-15T02:46:18.413Z,94381.67
2019-01-15T02:48:47.803Z,94383.79
2019-01-15T02:51:17.182Z,94377.47
2019-01-15T02:53:46.549Z,94386.75
2019-01-15T02:56:15.915Z,94383.31
2019-01-15T02:58:45.269Z,94379.64
2019-01-15T03:01:14.637Z,94387.92
2019-01-15T03:03:44.071Z,94386.81
2019-01-15T03:06:13.434Z,94394.48
2019-01-15T03:08:42.826Z,94370.91
2019-01-15T03:11:12.136Z,94395.89
2019-01-15T03:13:41.447Z,94396.12
2019-01-15T03:16:10.775Z,94403.82
2019-01-15T03:18:40.108Z,94411.55
2019-01-15T03:21:09.443Z,94409.27
2019-01-15T03:23:38.769Z,94407.92
2019-01-15T03:26:08.130Z,94419.59
2019-01-15T03:28:37.519Z,94415.56
2019-01-15T03:31:06.920Z,94417.95
2019-01-15T03:33:36.293Z,94425.19
2019-01-15T03:36:05.613Z,94416.75
2019-01-15T03:38:34.950Z,94414.66
2019-01-15T03:41:04.267Z,94414.84
2019-01-15T03:43:33.589Z,94414.61
2019-01-15T03:46:04.376Z,94413.33
2019-01-15T03:48:34.282Z,94415.23
2019-01-15T03:51:03.942Z,94406.27
2019-01-15T03:53:33.300Z,94413.42
2019-01-15T03:56:04.810Z,94413.97
2019-01-15T03:58:34.154Z,94415.39
2019-01-15T04:01:03.485Z,94428.89
2019-01-15T04:03:32.889Z,94432.13
2019-01-15T04:06:02.225Z,94446.41
2019-01-15T04:08:31.579Z,94449.06
2019-01-15T04:11:00.931Z,94456.22
2019-01-15T04:13:30.228Z,94459.18
2019-01-15T04:15:59.549Z,94465.08
2019-01-15T04:18:28.892Z,94468.52
2019-01-15T04:20:58.249Z,94476.22
2019-01-15T04:23:27.620Z,94472.54
2019-01-15T04:25:56.939Z,94474.61
2019-01-15T04:28:26.270Z,94468.59
2019-01-15T04:30:55.714Z,94469.91
2019-01-15T04:33:25.060Z,94475.44
2019-01-15T04:35:54.429Z,94477.50
2019-01-15T04:38:23.807Z,94475.66
2019-01-15T04:40:53.151Z,94476.19
2019-01-15T04:43:22.498Z,94474.61
2019-01-15T04:45:51.813Z,94477.00
2019-01-15T04:48:21.245Z,94476.19
2019-01-15T04:50:50.750Z,94476.70
2019-01-15T04:53:20.070Z,94484.66
2019-01-15T04:55:49.408Z,94481.48
2019-01-15T04:58:18.863Z,94488.91
2019-01-15T05:00:48.172Z,94491.78
2019-01-15T05:03:17.488Z,94487.59
2019-01-15T05:05:46.826Z,94482.55
2019-01-15T05:08:16.261Z,94475.20
2019-01-15T05:10:45.630Z,94478.08
2019-01-15T05:13:14.935Z,94474.39
2019-01-15T05:15:44.249Z,94468.56
2019-01-15T05:18:13.577Z,94461.17
2019-01-15T05:20:42.887Z,94471.97
2019-01-15T05:23:12.232Z,94473.26
2019-01-15T05:25:41.559Z,94480.85
2019-01-15T05:28:10.877Z,94485.03
2019-01-15T05:30:40.285Z,94485.03
2019-01-15T05:33:09.611Z,94499.81
2019-01-15T05:35:38.938Z,94490.02
2019-01-15T05:38:08.395Z,94493.97
2019-01-15T05:40:37.762Z,94502.66
2019-01-15T05:43:07.096Z,94509.17
2019-01-15T05:45:38.099Z,94509.91
2019-01-15T05:48:10.189Z,94347.92
2019-01-15T05:50:45.521Z,94516.53
2019-01-15T05:53:14.863Z,94511.53
2019-01-15T05:55:44.172Z,94328.61
2019-01-15T05:58:13.524Z,94496.15
2019-01-15T06:00:43.051Z,94506.24
2019-01-15T06:03:12.419Z,94528.55
2019-01-15T06:05:44.231Z,94547.62
2019-01-15T06:08:13.568Z,94547.39
2019-01-15T06:10:42.901Z,94540.27
2019-01-15T06:13:12.283Z,94200.15
2019-01-15T06:15:41.650Z,94557.10
2019-01-15T06:18:11.078Z,94565.26
2019-01-15T06:20:40.421Z,94560.73
2019-01-15T06:23:09.756Z,94567.55
2019-01-15T06:25:39.133Z,94571.80
2019-01-15T06:28:08.504Z,94578.66
2019-01-15T06:30:37.924Z,94574.96
2019-01-15T06:33:07.484Z,94574.44
2019-01-15T06:35:36.831Z,94583.91
2019-01-15T06:38:06.289Z,94589.45
2019-01-15T06:40:35.636Z,94591.80
2019-01-15T06:43:05.072Z,94603.89
2019-01-15T06:45:34.399Z,94599.23
2019-01-15T06:48:03.849Z,94600.36
2019-01-15T06:50:33.187Z,94603.33
2019-01-15T06:53:02.523Z,94616.06
2019-01-15T06:55:31.953Z,94617.16
2019-01-15T06:58:01.292Z,94611.59
2019-01-15T07:00:30.805Z,94630.06
2019-01-15T07:03:00.310Z,94627.59
2019-01-15T07:05:29.764Z,94630.30
2019-01-15T07:07:59.102Z,94636.23
2019-01-15T07:10:31.267Z,94637.11
2019-01-15T07:13:00.658Z,94640.84
2019-01-15T07:15:30.045Z,94640.84
2019-01-15T07:17:59.373Z,94638.44
2019-01-15T07:20:28.822Z,93862.03
2019-01-15T07:23:07.115Z,94653.53
2019-01-15T07:25:36.652Z,94659.03
2019-01-15T07:28:06.331Z,94664.45
2019-01-15T07:30:38.748Z,94651.25
2019-01-15T07:33:09.152Z,94667.17
2019-01-15T07:35:38.593Z,94668.30
2019-01-15T07:38:08.188Z,94670.64
2019-01-15T07:40:37.830Z,94674.05
2019-01-15T07:43:07.243Z,94675.88
2019-01-15T07:45:36.706Z,94674.34
2019-01-15T07:48:06.402Z,94680.40
2019-01-15T07:50:35.805Z,94679.95
2019-01-15T07:53:06.130Z,94682.64
2019-01-15T07:55:35.499Z,94682.64
2019-01-15T07:58:05.002Z,94698.59
2019-01-15T08:00:34.383Z,94698.59
2019-01-15T08:03:04.110Z,94698.20
2019-01-15T08:05:33.491Z,94695.25
2019-01-15T08:08:03.156Z,94715.08
2019-01-15T08:10:32.716Z,94724.89
2019-01-15T08:13:02.112Z,94728.71
2019-01-15T08:15:31.568Z,94729.55
2019-01-15T08:18:00.886Z,94733.94
2019-01-15T08:20:31.431Z,94743.94
2019-01-15T08:23:00.869Z,94754.03
2019-01-15T08:25:30.234Z,94751.52
2019-01-15T08:27:59.647Z,94757.41
2019-01-15T08:30:31.784Z,94761.89
2019-01-15T08:33:01.160Z,94758.66
2019-01-15T08:35:30.552Z,94751.17
2019-01-15T08:38:00.030Z,94755.92
2019-01-15T08:40:29.434Z,94751.82
2019-01-15T08:42:58.846Z,94755.09
2019-01-15T08:45:28.184Z,94755.36
2019-01-15T08:48:10.941Z,94753.23
2019-01-15T08:50:40.499Z,94754.48
2019-01-15T08:53:10.317Z,94757.97
2019-01-15T08:55:39.649Z,94758.83
2019-01-15T08:58:08.992Z,94763.88
2019-01-15T09:00:38.336Z,94761.39
2019-01-15T09:03:07.673Z,94765.26
2019-01-15T09:05:37.443Z,94758.38
2019-01-15T09:08:06.800Z,94751.86
2019-01-15T09:10:36.158Z,94740.38
2019-01-15T09:13:06.037Z,94745.73
2019-01-15T09:15:35.460Z,94742.10
2019-01-15T09:18:04.973Z,94738.43
2019-01-15T09:20:34.389Z,94730.93
2019-01-15T09:23:03.771Z,94731.42
2019-01-15T09:25:33.142Z,94731.78
2019-01-15T09:28:02.515Z,94726.17
2019-01-15T09:30:31.897Z,94730.27
2019-01-15T09:33:01.227Z,94724.94
2019-01-15T09:35:30.569Z,94714.91
2019-01-15T09:38:00.496Z,94723.21
2019-01-15T09:40:30.006Z,94703.52
2019-01-15T09:42:59.454Z,94703.22
2019-01-15T09:45:28.840Z,94694.62
2019-01-15T09:48:05.713Z,94700.16
2019-01-15T09:50:35.220Z,94690.58
2019-01-15T09:53:04.991Z,94692.22
2019-01-15T09:55:35.397Z,94692.38
2019-01-15T09:58:05.618Z,94694.70
2019-01-15T10:00:35.042Z,94698.73
2019-01-15T10:03:04.364Z,94693.45
2019-01-15T10:05:33.696Z,94693.77
2019-01-15T10:08:03.053Z,94702.00
2019-01-15T10:10:32.380Z,94707.53
2019-01-15T10:13:01.725Z,94698.11
2019-01-15T10:15:31.053Z,94693.81
2019-01-15T10:18:00.423Z,94706.72
2019-01-15T10:20:29.751Z,94701.63
2019-01-15T10:22:59.076Z,94698.47
2019-01-15T10:25:29.720Z,94699.62
2019-01-15T10:27:59.242Z,94708.62
2019-01-15T10:31:21.511Z,94704.25
2019-01-15T10:33:57.943Z,94687.44
2019-01-15T10:36:25.485Z,94701.45
2019-01-15T10:38:54.796Z,94704.34
2019-01-15T10:41:24.128Z,94699.44
2019-01-15T10:43:53.426Z,94708.19
2019-01-15T10:46:23.161Z,94699.69
2019-01-15T10:48:52.506Z,94701.52
2019-01-15T10:51:21.829Z,94692.28
2019-01-15T10:53:51.165Z,94682.73
2019-01-15T10:56:20.499Z,94679.57
2019-01-15T10:58:49.845Z,94686.94
2019-01-15T11:01:19.191Z,94689.67
2019-01-15T11:03:48.516Z,94693.16
2019-01-15T11:06:17.911Z,94701.22
2019-01-15T11:08:47.263Z,94699.61
2019-01-15T11:11:16.595Z,94695.90
2019-01-15T11:13:45.884Z,94701.17
2019-01-15T11:16:15.168Z,94704.22
2019-01-15T11:18:44.486Z,94683.25
2019-01-15T11:21:14.720Z,94686.67
2019-01-15T11:23:44.079Z,94706.12
2019-01-15T11:26:13.444Z,94700.49
2019-01-15T11:28:42.812Z,94711.58
2019-01-15T11:31:12.111Z,94710.29
2019-01-15T11:33:41.435Z,94716.17
2019-01-15T11:36:10.781Z,94699.89
2019-01-15T11:38:40.169Z,94703.80
2019-01-15T11:41:09.910Z,94713.10
2019-01-15T11:43:39.287Z,94713.70
2019-01-15T11:46:08.624Z,94726.13
2019-01-15T11:48:37.954Z,94729.42
2019-01-15T11:51:07.274Z,94708.69
2019-01-15T11:53:36.596Z,94729.02
2019-01-15T11:56:05.934Z,94728.70
2019-01-15T11:58:35.410Z,94740.74
2019-01-15T12:01:19.437Z,94746.45
2019-01-15T12:04:10.458Z,94743.74
2019-01-15T12:06:54.610Z,94757.64
2019-01-15T12:09:55.027Z,94750.87
2019-01-15T12:12:58.365Z,94756.87
2019-01-15T12:15:39.262Z,94734.92
2019-01-15T12:18:27.529Z,94755.68
2019-01-15T12:21:14.638Z,94766.70
2019-01-15T12:24:02.895Z,94765.28
2019-01-15T12:26:40.630Z,94763.97
2019-01-15T12:29:38.305Z,94752.49
2019-01-15T12:32:28.167Z,94761.03
2019-01-15T12:35:28.808Z,94758.30
2019-01-15T12:38:15.976Z,94772.34
2019-01-15T12:41:07.412Z,94778.39
2019-01-15T12:43:54.399Z,94766.97
2019-01-15T12:46:41.547Z,94773.41
2019-01-15T12:49:27.061Z,94780.13
2019-01-15T12:52:15.349Z,94777.09
2019-01-15T12:55:15.705Z,94778.54
2019-01-15T12:58:02.928Z,94782.01
2019-01-15T13:00:50.033Z,94783.88
2019-01-15T13:03:37.132Z,94791.19
2019-01-15T13:06:25.546Z,94781.19
2019-01-15T13:09:08.957Z,94801.36
2019-01-15T13:11:56.144Z,94801.36
2019-01-15T13:14:53.732Z,94803.27
2019-01-15T13:18:00.310Z,94800.41
2019-01-15T13:20:47.170Z,94803.52
2019-01-15T13:23:34.315Z,94803.56
2019-01-15T13:26:21.733Z,94816.09
2019-01-15T13:29:19.094Z,94816.09
2019-01-15T13:32:07.372Z,94809.38
2019-01-15T13:35:07.928Z,94809.38
2019-01-15T13:37:54.832Z,94808.34
2019-01-15T13:40:58.279Z,94819.42
2019-01-15T13:43:45.210Z,94827.38
2019-01-15T13:46:42.518Z,94828.13
2019-01-15T13:49:43.236Z,94828.95
2019-01-15T13:52:34.369Z,94834.23
2019-01-15T13:55:28.091Z,94830.50
2019-01-15T13:58:24.588Z,94835.23
2019-01-15T14:01:08.854Z,94828.89
2019-01-15T14:04:03.010Z,94838.92
2019-01-15T14:07:06.946Z,94836.67
2019-01-15T14:09:53.320Z,94838.05
2019-01-15T14:12:44.634Z,94838.53
2019-01-15T14:15:49.125Z,94844.27
2019-01-15T14:18:36.089Z,94854.17
2019-01-15T14:21:30.489Z,94861.29
2019-01-15T14:24:24.645Z,94871.09
2019-01-15T14:27:02.653Z,94873.02
2019-01-15T14:29:49.670Z,94873.38
2019-01-15T14:32:43.994Z,94879.44
2019-01-15T14:35:33.220Z,94882.38
2019-01-15T14:38:30.748Z,94879.00
2019-01-15T14:41:19.040Z,94884.33
2019-01-15T14:44:05.946Z,94891.75
2019-01-15T14:46:54.246Z,94890.43
2019-01-15T14:49:41.503Z,94883.55
2019-01-15T14:52:32.840Z,94887.80
2019-01-15T14:55:19.632Z,94887.82
2019-01-15T14:58:14.041Z,94890.23
2019-01-15T15:01:02.364Z,94899.77
2019-01-15T15:03:53.727Z,94899.77
2019-01-15T15:06:40.664Z,94904.78
2019-01-15T15:09:37.068Z,94898.97
2019-01-15T15:12:24.018Z,94905.34
2019-01-15T15:15:12.271Z,94908.77
2019-01-15T15:18:00.599Z,94905.33
2019-01-15T15:20:54.347Z,94910.08
2019-01-15T15:23:43.601Z,94912.72
2019-01-15T15:26:30.574Z,94921.97
2019-01-15T15:29:18.847Z,94923.55
2019-01-15T15:32:10.382Z,94924.63
2019-01-15T15:34:57.500Z,94926.70
2019-01-15T15:37:43.439Z,94924.59
2019-01-15T15:40:31.831Z,94937.51
2019-01-15T15:43:29.525Z,94951.80
2019-01-15T15:46:15.412Z,94951.51
2019-01-15T15:49:02.583Z,94949.66
2019-01-15T15:52:09.366Z,94959.66
2019-01-15T15:54:57.782Z,94954.87
2019-01-15T15:57:37.335Z,94970.47
2019-01-15T16:00:42.115Z,94970.45
2019-01-15T16:03:27.607Z,94973.84
2019-01-15T16:06:15.365Z,94978.33
2019-01-15T16:09:03.578Z,94978.33
2019-01-15T16:11:50.610Z,94988.33
2019-01-15T16:15:00.553Z,94983.84
2019-01-15T16:17:47.521Z,94985.41
2019-01-15T16:20:44.717Z,95001.48
2019-01-15T16:23:31.877Z,95005.16
2019-01-15T16:26:23.284Z,95016.48
2019-01-15T16:29:30.151Z,95023.61
2019-01-15T16:32:07.822Z,95033.93
2019-01-15T16:35:08.139Z,95034.98
2019-01-15T16:37:53.664Z,95037.84
2019-01-15T16:40:50.835Z,95055.50
2019-01-15T16:43:39.145Z,95054.42
2019-01-15T16:46:39.725Z,95063.94
2019-01-15T16:49:31.324Z,95065.48
2019-01-15T16:52:22.561Z,95071.27
2019-01-15T16:55:09.552Z,95075.21
2019-01-15T16:57:56.171Z,95078.11
2019-01-15T17:00:43.320Z,95079.69
2019-01-15T17:03:34.623Z,95092.87
2019-01-15T17:06:26.288Z,95100.79
2019-01-15T17:09:18.179Z,95106.06
2019-01-15T17:12:04.506Z,95116.57
2019-01-15T17:14:52.819Z,95121.33
2019-01-15T17:17:39.751Z,95127.64
2019-01-15T17:20:27.926Z,95131.59
2019-01-15T17:23:22.455Z,95135.72
2019-01-15T17:26:06.260Z,95140.77
2019-01-15T17:28:54.613Z,95151.28
2019-01-15T17:31:58.246Z,95153.64
2019-01-15T17:34:49.531Z,95160.23
2019-01-15T17:37:55.979Z,95164.08
2019-01-15T17:40:43.889Z,95169.35
2019-01-15T17:43:50.793Z,95173.34
2019-01-15T17:46:43.183Z,95164.67
2019-01-15T17:49:40.662Z,95166.72
2019-01-15T17:52:25.136Z,95173.16
2019-01-15T17:55:03.668Z,95176.57
2019-01-15T17:57:54.833Z,95177.34
2019-01-15T18:00:46.122Z,95179.52
2019-01-15T18:03:33.363Z,95176.59
2019-01-15T18:06:24.679Z,95192.42
2019-01-15T18:09:13.200Z,95192.36
2019-01-15T18:12:01.465Z,95195.80
2019-01-15T18:15:04.980Z,95204.23
2019-01-15T18:17:53.567Z,95196.58
2019-01-15T18:20:40.569Z,95212.63
2019-01-15T18:23:20.497Z,95210.05
2019-01-15T18:26:17.953Z,95214.06
2019-01-15T18:29:09.352Z,95213.98
2019-01-15T18:31:56.319Z,95211.31
2019-01-15T18:34:44.611Z,95212.11
2019-01-15T18:37:31.796Z,95218.70
2019-01-15T18:40:22.270Z,95209.45
2019-01-15T18:43:01.808Z,95210.45
2019-01-15T18:45:46.874Z,95212.23
2019-01-15T18:48:50.540Z,95210.16
2019-01-15T18:51:44.736Z,95215.41
2019-01-15T18:54:27.265Z,95224.18
2019-01-15T18:57:21.800Z,95222.60
2019-01-15T19:00:09.047Z,95218.36
2019-01-15T19:02:46.754Z,95216.78
2019-01-15T19:05:34.865Z,95219.36
2019-01-15T19:08:26.251Z,95220.94
2019-01-15T19:11:17.852Z,95220.39
2019-01-15T19:14:24.402Z,95245.73
2019-01-15T19:17:21.370Z,95251.42
2019-01-15T19:20:07.998Z,95240.10
2019-01-15T19:22:44.141Z,95232.42
2019-01-15T19:25:38.980Z,95252.34
2019-01-15T19:28:39.311Z,95253.47
2019-01-15T19:31:26.282Z,95256.25
2019-01-15T19:34:32.984Z,95255.22
2019-01-15T19:37:23.043Z,95269.78
2019-01-15T19:40:12.314Z,95268.18
2019-01-15T19:43:19.435Z,95277.16
2019-01-15T19:46:15.513Z,95279.80
2019-01-15T19:49:02.440Z,95273.97
2019-01-15T19:51:42.075Z,95288.06
2019-01-15T19:54:26.221Z,95282.80
2019-01-15T19:57:11.449Z,95280.06
2019-01-15T19:59:59.740Z,95282.73
2019-01-15T20:02:51.114Z,95279.61
2019-01-15T20:05:39.772Z,95279.38
2019-01-15T20:08:26.741Z,95279.38
2019-01-15T20:11:13.418Z,95272.27
2019-01-15T20:14:00.657Z,95118.91
2019-01-15T20:16:54.753Z,95279.67
2019-01-15T20:19:34.193Z,95281.88
2019-01-15T20:22:27.188Z,95292.14
2019-01-15T20:25:11.823Z,95294.81
2019-01-15T20:27:54.546Z,95282.43
2019-01-15T20:30:41.752Z,95290.86
2019-01-15T20:33:28.910Z,95292.66
2019-01-15T20:36:06.672Z,95296.94
2019-01-15T20:39:00.935Z,95288.53
2019-01-15T20:41:47.867Z,95288.25
2019-01-15T20:44:51.456Z,95288.99
2019-01-15T20:47:45.247Z,95287.64
2019-01-15T20:50:36.931Z,95286.12
2019-01-15T20:53:24.037Z,95291.98
2019-01-15T20:56:12.460Z,95295.84
2019-01-15T20:58:59.414Z,95290.89
2019-01-15T21:01:38.173Z,95288.99
2019-01-15T21:04:38.635Z,95290.19
2019-01-15T21:07:26.953Z,95293.05
2019-01-15T21:10:15.500Z,95294.44
2019-01-15T21:13:02.446Z,95298.33
2019-01-15T21:16:00.132Z,95291.54
2019-01-15T21:18:51.450Z,95288.16
2019-01-15T21:21:44.821Z,95290.05
2019-01-15T21:24:32.160Z,95300.44
2019-01-15T21:27:23.368Z,95297.31
2019-01-15T21:30:10.623Z,95298.66
2019-01-15T21:32:58.932Z,95309.02
2019-01-15T21:35:53.325Z,95315.58
2019-01-15T21:38:53.778Z,95320.34
2019-01-15T21:42:00.470Z,95327.80
2019-01-15T21:44:48.773Z,95322.55
2019-01-15T21:47:40.270Z,95328.34
2019-01-15T21:50:31.748Z,95329.20
2019-01-15T21:53:11.414Z,95335.86
2019-01-15T21:56:02.759Z,95335.17
2019-01-15T21:58:41.340Z,95333.59
2019-01-15T22:01:39.151Z,95339.41
2019-01-15T22:04:30.210Z,95318.84
2019-01-15T22:07:18.458Z,95323.14
2019-01-15T22:10:17.296Z,95316.06
2019-01-15T22:13:07.811Z,95303.41
2019-01-15T22:15:57.492Z,95311.66
2019-01-15T22:19:01.108Z,95313.57
2019-01-15T22:21:42.460Z,95312.80
2019-01-15T22:24:30.219Z,95318.39
2019-01-15T22:27:14.341Z,95325.31
2019-01-15T22:30:05.463Z,95318.70
2019-01-15T22:32:56.904Z,95322.13
2019-01-15T22:35:44.236Z,95315.23
2019-01-15T22:38:28.506Z,95318.12
2019-01-15T22:41:20.643Z,95315.17
2019-01-15T22:44:23.965Z,95308.55
2019-01-15T22:47:18.353Z,95314.11
2019-01-15T22:50:06.633Z,95307.02
2019-01-15T22:52:46.476Z,95315.44
2019-01-15T22:55:33.567Z,95298.78
2019-01-15T22:58:20.762Z,95296.95
2019-01-15T23:01:08.075Z,95308.55
2019-01-15T23:04:08.664Z,95312.55
2019-01-15T23:06:55.641Z,95297.81
2019-01-15T23:09:59.313Z,95310.52
2019-01-15T23:12:56.579Z,95329.03
2019-01-15T23:15:47.905Z,95330.88
2019-01-15T23:18:35.109Z,95326.13
2019-01-15T23:21:39.052Z,95321.39
2019-01-15T23:24:26.131Z,95322.97
2019-01-15T23:27:13.546Z,95330.14
2019-01-15T23:29:52.066Z,95326.66
2019-01-15T23:32:40.327Z,95317.38
2019-01-15T23:35:32.121Z,95321.39
2019-01-15T23:38:29.307Z,95318.25
2019-01-15T23:41:30.025Z,95304.73
2019-01-15T23:44:27.352Z,95316.11
2019-01-15T23:47:21.762Z,95321.39
2019-01-15T23:50:00.816Z,95326.18
2019-01-15T23:52:58.430Z,95340.73
2019-01-15T23:55:58.966Z,95337.56
2019-01-15T23:59:02.697Z,95335.23
